Time;durP1;ratioP1;P1;durP2;ratioP2;P2;SDS_P1;SDS_P2;PMS_P1;PMS_P2;Temp;Humidity;BMP_temperature;BMP_pressure;BME280_temperature;BME280_humidity;BME280_pressure;Samples;Min_cycle;Max_cycle;Signal;HPM_P1;HPM_P2
2021/12/10 00:01:41;;;;;;;5.68;2.25;;;;;;;;;;5077254;28;20120;-63
2021/12/10 00:04:08;;;;;;;7.10;2.45;;;;;;;;;;5095356;28;20028;-64
2021/12/10 00:06:43;;;;;;;4.53;2.08;;;;;;;;;;5095262;28;20077;-67
2021/12/10 00:09:14;;;;;;;4.13;1.90;;;;;;;;;;5095784;28;20027;-65
2021/12/10 00:11:45;;;;;;;4.55;2.13;;;;;;;;;;5095938;28;20137;-72
2021/12/10 00:14:11;;;;;;;4.07;2.10;;;;;;;;;;5076642;28;20028;-73
2021/12/10 00:16:38;;;;;;;7.72;2.15;;;;;;;;;;5095432;28;20040;-72
2021/12/10 00:19:21;;;;;;;6.72;1.88;;;;;;;;;;5093942;28;20329;-72
2021/12/10 00:21:47;;;;;;;6.05;1.77;;;;;;;;;;5075312;28;20021;-69
2021/12/10 00:24:15;;;;;;;4.43;1.70;;;;;;;;;;5075014;28;20383;-66
2021/12/10 00:26:41;;;;;;;7.13;2.10;;;;;;;;;;5056518;28;20062;-68
2021/12/10 00:29:08;;;;;;;6.15;2.15;;;;;;;;;;5074710;28;20046;-63
2021/12/10 00:34:09;;;;;;;3.63;1.80;;;;;;;;;;5074899;28;20351;-65
2021/12/10 00:36:36;;;;;;;6.40;2.00;;;;;;;;;;5056580;28;20051;-64
2021/12/10 00:39:07;;;;;;;6.35;1.88;;;;;;;;;;5074565;28;20035;-65
2021/12/10 00:41:33;;;;;;;5.07;1.90;;;;;;;;;;5057009;28;20024;-71
2021/12/10 00:43:59;;;;;;;4.65;1.90;;;;;;;;;;5074826;28;20029;-70
2021/12/10 00:46:25;;;;;;;3.53;1.77;;;;;;;;;;5075017;28;20021;-71
2021/12/10 00:48:51;;;;;;;5.05;2.13;;;;;;;;;;5074577;28;20028;-71
2021/12/10 00:51:17;;;;;;;5.70;1.98;;;;;;;;;;5074728;28;20118;-70
2021/12/10 00:53:44;;;;;;;6.93;2.20;;;;;;;;;;5057082;28;20050;-70
2021/12/10 00:56:10;;;;;;;3.45;1.85;;;;;;;;;;5074469;28;20032;-71
2021/12/10 00:58:37;;;;;;;5.15;1.83;;;;;;;;;;5056203;28;20119;-64
2021/12/10 01:01:06;;;;;;;9.82;2.17;;;;;;;;;;5055998;28;20016;-65
2021/12/10 01:03:34;;;;;;;4.93;1.83;;;;;;;;;;5073867;28;20021;-65
2021/12/10 01:06:02;;;;;;;3.22;1.40;;;;;;;;;;5073631;28;20444;-65
2021/12/10 01:08:30;;;;;;;4.35;2.03;;;;;;;;;;5074081;28;20070;-64
2021/12/10 01:10:59;;;;;;;2.25;1.55;;;;;;;;;;5073936;28;20100;-68
2021/12/10 01:13:30;;;;;;;4.65;1.75;;;;;;;;;;5074463;28;20029;-70
2021/12/10 01:26:58;;;;;;;3.75;1.88;;;;;;;;;;5097062;28;20110;-65
2021/12/10 01:29:28;;;;;;;4.32;1.98;;;;;;;;;;5109473;28;20058;-65
2021/12/10 01:31:54;;;;;;;4.07;1.98;;;;;;;;;;5073722;28;20100;-67
2021/12/10 01:34:20;;;;;;;4.35;1.55;;;;;;;;;;5073442;28;20167;-65
2021/12/10 01:36:46;;;;;;;3.60;1.73;;;;;;;;;;5054900;28;20543;-66
2021/12/10 01:39:15;;;;;;;4.50;1.60;;;;;;;;;;5055031;28;20167;-66
2021/12/10 01:41:43;;;;;;;3.47;1.77;;;;;;;;;;5073696;28;20032;-72
2021/12/10 01:44:17;;;;;;;5.53;1.88;;;;;;;;;;5073989;28;20036;-72
2021/12/10 01:46:48;;;;;;;6.10;1.75;;;;;;;;;;5074056;28;20021;-72
2021/12/10 01:49:14;;;;;;;3.30;1.70;;;;;;;;;;5074082;28;20111;-72
2021/12/10 01:51:41;;;;;;;8.73;2.00;;;;;;;;;;5073423;28;20082;-71
2021/12/10 01:54:10;;;;;;;4.97;1.73;;;;;;;;;;5073917;28;20082;-71
2021/12/10 01:56:39;;;;;;;6.25;1.85;;;;;;;;;;5055487;28;20040;-64
2021/12/10 01:59:06;;;;;;;3.15;1.70;;;;;;;;;;5073442;28;20047;-64
2021/12/10 02:01:38;;;;;;;3.63;1.42;;;;;;;;;;5055577;28;20074;-64
2021/12/10 02:04:05;;;;;;;5.90;1.60;;;;;;;;;;5073163;28;20031;-64
2021/12/10 02:06:31;;;;;;;3.22;1.50;;;;;;;;;;5054974;28;20118;-69
2021/12/10 02:08:57;;;;;;;11.98;1.88;;;;;;;;;;5072874;28;20552;-68
2021/12/10 02:11:23;;;;;;;4.38;1.67;;;;;;;;;;5073114;28;20030;-64
2021/12/10 02:13:49;;;;;;;7.30;1.70;;;;;;;;;;5082224;28;20110;-69
2021/12/10 02:16:15;;;;;;;4.03;1.77;;;;;;;;;;5093598;28;20068;-70
2021/12/10 02:18:42;;;;;;;7.30;1.75;;;;;;;;;;5093733;28;20024;-70
2021/12/10 02:21:08;;;;;;;5.35;2.00;;;;;;;;;;5093861;28;20024;-71
2021/12/10 02:23:36;;;;;;;6.07;1.85;;;;;;;;;;5093756;28;20020;-64
2021/12/10 02:26:08;;;;;;;7.60;1.75;;;;;;;;;;5093277;28;20054;-64
2021/12/10 02:28:34;;;;;;;2.38;1.55;;;;;;;;;;5074820;28;20043;-65
2021/12/10 02:31:00;;;;;;;4.15;1.83;;;;;;;;;;5093383;28;20031;-64
2021/12/10 02:33:27;;;;;;;4.07;1.55;;;;;;;;;;5074688;28;20021;-67
2021/12/10 02:35:53;;;;;;;3.03;1.70;;;;;;;;;;5093200;28;20024;-71
2021/12/10 02:38:20;;;;;;;6.18;1.50;;;;;;;;;;5074881;28;20036;-64
2021/12/10 02:40:48;;;;;;;2.63;1.50;;;;;;;;;;5075026;28;20042;-64
2021/12/10 02:43:15;;;;;;;3.03;1.58;;;;;;;;;;5071262;28;20016;-74
2021/12/10 02:45:43;;;;;;;10.65;2.10;;;;;;;;;;5073526;28;20145;-72
2021/12/10 02:48:09;;;;;;;8.80;1.73;;;;;;;;;;5073368;28;20029;-72
2021/12/10 02:50:35;;;;;;;4.03;1.73;;;;;;;;;;5077233;28;20044;-73
2021/12/10 02:53:02;;;;;;;2.63;1.67;;;;;;;;;;5059020;28;20033;-74
2021/12/10 02:55:30;;;;;;;4.88;1.40;;;;;;;;;;5077152;28;20025;-74
2021/12/10 02:57:57;;;;;;;5.45;1.40;;;;;;;;;;5076378;28;20036;-64
2021/12/10 03:00:26;;;;;;;5.53;1.60;;;;;;;;;;5077009;28;20028;-64
2021/12/10 03:02:53;;;;;;;2.90;1.60;;;;;;;;;;5096410;28;20036;-64
2021/12/10 03:05:20;;;;;;;5.32;1.50;;;;;;;;;;5096641;28;20020;-63
2021/12/10 03:07:46;;;;;;;7.47;1.60;;;;;;;;;;5078322;28;20020;-63
2021/12/10 03:10:16;;;;;;;2.28;1.50;;;;;;;;;;5078473;28;20546;-63
2021/12/10 03:12:42;;;;;;;5.00;1.90;;;;;;;;;;5096782;28;20024;-72
2021/12/10 03:15:08;;;;;;;3.95;1.50;;;;;;;;;;5078586;28;20032;-73
2021/12/10 03:17:35;;;;;;;4.20;1.65;;;;;;;;;;5095874;28;20457;-73
2021/12/10 03:20:02;;;;;;;2.33;1.30;;;;;;;;;;5115546;28;20054;-74
2021/12/10 03:22:28;;;;;;;5.65;1.55;;;;;;;;;;5117282;28;20070;-74
2021/12/10 03:24:54;;;;;;;5.65;1.50;;;;;;;;;;5099177;28;20088;-73
2021/12/10 03:27:22;;;;;;;6.78;1.60;;;;;;;;;;5117638;28;20034;-68
2021/12/10 03:29:48;;;;;;;7.25;1.65;;;;;;;;;;5117096;28;20111;-70
2021/12/10 03:32:16;;;;;;;5.78;1.60;;;;;;;;;;5116954;28;20026;-71
2021/12/10 03:34:43;;;;;;;4.53;1.50;;;;;;;;;;5116990;28;20019;-72
2021/12/10 03:37:09;;;;;;;6.78;1.42;;;;;;;;;;5116822;28;20038;-71
2021/12/10 03:39:36;;;;;;;4.38;1.55;;;;;;;;;;5116906;28;20031;-72
2021/12/10 03:42:02;;;;;;;2.95;1.35;;;;;;;;;;5117100;28;20030;-65
2021/12/10 03:44:28;;;;;;;9.20;1.33;;;;;;;;;;5116890;28;20043;-70
2021/12/10 03:46:55;;;;;;;4.38;1.42;;;;;;;;;;5116961;28;20084;-71
2021/12/10 03:49:21;;;;;;;9.75;1.50;;;;;;;;;;5098486;28;20403;-71
2021/12/10 03:51:48;;;;;;;3.55;1.25;;;;;;;;;;5101287;28;20056;-65
2021/12/10 03:54:16;;;;;;;5.93;1.60;;;;;;;;;;5096422;28;20487;-72
2021/12/10 03:56:43;;;;;;;2.58;1.10;;;;;;;;;;5096140;28;20118;-71
2021/12/10 03:59:12;;;;;;;3.13;1.20;;;;;;;;;;5096366;28;20036;-70
2021/12/10 04:01:43;;;;;;;5.20;1.52;;;;;;;;;;5094859;28;20056;-65
2021/12/10 04:04:11;;;;;;;4.40;1.48;;;;;;;;;;5095612;28;20112;-70
2021/12/10 04:06:37;;;;;;;4.25;1.30;;;;;;;;;;5095966;28;20024;-72
2021/12/10 04:09:04;;;;;;;3.10;1.30;;;;;;;;;;5096092;28;20104;-68
2021/12/10 04:11:31;;;;;;;3.45;1.40;;;;;;;;;;5095773;28;20032;-69
2021/12/10 04:13:57;;;;;;;1.52;1.10;;;;;;;;;;5095707;28;20024;-70
2021/12/10 04:16:24;;;;;;;10.65;1.27;;;;;;;;;;5095459;28;20119;-71
2021/12/10 04:18:53;;;;;;;8.95;1.27;;;;;;;;;;5087272;28;20384;-70
2021/12/10 04:21:19;;;;;;;2.28;1.00;;;;;;;;;;5076043;28;20028;-72
2021/12/10 04:23:45;;;;;;;2.05;0.98;;;;;;;;;;5075360;28;20403;-73
2021/12/10 04:26:12;;;;;;;2.75;1.00;;;;;;;;;;5057287;28;20376;-74
2021/12/10 04:28:38;;;;;;;6.40;1.33;;;;;;;;;;5075487;28;20086;-74
2021/12/10 04:31:04;;;;;;;14.30;1.42;;;;;;;;;;5075731;28;20055;-74
2021/12/10 04:33:30;;;;;;;11.68;1.10;;;;;;;;;;5057167;28;20041;-73
2021/12/10 04:35:58;;;;;;;3.42;1.30;;;;;;;;;;5075812;28;20027;-73
2021/12/10 04:38:24;;;;;;;5.85;1.20;;;;;;;;;;5075192;28;20464;-73
2021/12/10 04:40:52;;;;;;;2.40;1.05;;;;;;;;;;5074801;28;20028;-67
2021/12/10 04:43:19;;;;;;;3.15;1.20;;;;;;;;;;5075036;28;20025;-73
2021/12/10 04:45:45;;;;;;;1.35;1.00;;;;;;;;;;5057464;28;20472;-73
2021/12/10 04:48:11;;;;;;;4.22;1.20;;;;;;;;;;5074856;28;20460;-72
2021/12/10 04:50:38;;;;;;;3.33;1.00;;;;;;;;;;5075134;28;20035;-72
2021/12/10 04:53:06;;;;;;;4.28;1.10;;;;;;;;;;5057255;28;20051;-71
2021/12/10 04:55:32;;;;;;;2.67;1.10;;;;;;;;;;5074734;28;20341;-72
2021/12/10 04:57:58;;;;;;;4.47;1.10;;;;;;;;;;5056699;28;20369;-72
2021/12/10 05:00:26;;;;;;;1.27;1.10;;;;;;;;;;5074875;28;20073;-72
2021/12/10 05:02:53;;;;;;;3.17;1.20;;;;;;;;;;5074662;28;20077;-73
2021/12/10 05:05:19;;;;;;;2.35;1.20;;;;;;;;;;5074520;28;20044;-72
2021/12/10 05:07:45;;;;;;;7.15;1.10;;;;;;;;;;5074759;28;20074;-73
2021/12/10 05:10:12;;;;;;;1.92;1.00;;;;;;;;;;5074440;28;20503;-71
2021/12/10 05:12:38;;;;;;;3.08;0.88;;;;;;;;;;5056683;28;20380;-71
2021/12/10 05:15:06;;;;;;;1.98;1.00;;;;;;;;;;5074285;28;20475;-71
2021/12/10 05:17:34;;;;;;;2.35;0.85;;;;;;;;;;5074036;28;20047;-73
2021/12/10 05:20:01;;;;;;;1.48;0.88;;;;;;;;;;5081984;28;20166;-72
2021/12/10 05:22:28;;;;;;;4.60;0.90;;;;;;;;;;5094804;28;20065;-73
2021/12/10 05:24:54;;;;;;;3.03;0.90;;;;;;;;;;5094355;28;20085;-71
2021/12/10 05:27:20;;;;;;;2.78;1.00;;;;;;;;;;5076380;28;20504;-71
2021/12/10 05:29:46;;;;;;;3.30;0.88;;;;;;;;;;5094264;28;20024;-73
2021/12/10 05:32:16;;;;;;;2.58;0.90;;;;;;;;;;5094943;28;20023;-72
2021/12/10 05:34:42;;;;;;;3.20;1.00;;;;;;;;;;5075909;28;20024;-73
2021/12/10 05:37:08;;;;;;;5.65;1.00;;;;;;;;;;5094308;28;20094;-72
2021/12/10 05:39:34;;;;;;;7.32;1.02;;;;;;;;;;5094358;28;20028;-71
2021/12/10 05:42:03;;;;;;;3.75;1.00;;;;;;;;;;5094027;28;20532;-72
2021/12/10 05:44:29;;;;;;;4.13;1.05;;;;;;;;;;5094070;28;20105;-72
2021/12/10 05:46:55;;;;;;;10.00;1.50;;;;;;;;;;5076183;28;20421;-72
2021/12/10 05:49:21;;;;;;;4.82;0.88;;;;;;;;;;5093854;28;20028;-73
2021/12/10 05:51:47;;;;;;;3.28;0.88;;;;;;;;;;5066351;28;20020;-72
2021/12/10 05:54:13;;;;;;;4.95;0.90;;;;;;;;;;5073476;28;20060;-72
2021/12/10 05:56:40;;;;;;;5.75;0.93;;;;;;;;;;5073982;28;20066;-72
2021/12/10 05:59:06;;;;;;;5.88;0.90;;;;;;;;;;5055581;28;20035;-73
2021/12/10 06:01:32;;;;;;;2.25;0.80;;;;;;;;;;5073895;28;20074;-74
2021/12/10 06:03:58;;;;;;;7.32;1.17;;;;;;;;;;5073690;28;20392;-72
2021/12/10 06:06:27;;;;;;;6.82;1.13;;;;;;;;;;5073723;28;20025;-73
2021/12/10 06:08:53;;;;;;;18.33;1.70;;;;;;;;;;5073453;28;20380;-72
2021/12/10 06:11:20;;;;;;;10.15;1.10;;;;;;;;;;5073635;28;20449;-72
2021/12/10 06:13:47;;;;;;;8.93;1.10;;;;;;;;;;5073217;28;20571;-72
2021/12/10 06:16:13;;;;;;;7.88;0.90;;;;;;;;;;5073478;28;20063;-70
2021/12/10 06:18:39;;;;;;;8.60;1.15;;;;;;;;;;5075384;28;20028;-75
2021/12/10 06:21:05;;;;;;;4.03;1.08;;;;;;;;;;5059220;28;20024;-68
2021/12/10 06:23:31;;;;;;;12.55;1.45;;;;;;;;;;5072850;28;20024;-69
2021/12/10 06:25:58;;;;;;;5.50;1.13;;;;;;;;;;5073189;28;20025;-71
2021/12/10 06:28:24;;;;;;;5.38;1.10;;;;;;;;;;5072392;28;20077;-69
2021/12/10 06:30:51;;;;;;;6.40;0.95;;;;;;;;;;5055123;28;20060;-70
2021/12/10 06:33:17;;;;;;;4.72;1.08;;;;;;;;;;5081991;28;20028;-70
2021/12/10 06:35:45;;;;;;;6.15;1.10;;;;;;;;;;5092092;28;20111;-69
2021/12/10 06:38:11;;;;;;;8.55;1.05;;;;;;;;;;5092412;28;20078;-69
2021/12/10 06:40:39;;;;;;;14.55;0.98;;;;;;;;;;5093682;28;20069;-70
2021/12/10 06:43:05;;;;;;;5.95;0.90;;;;;;;;;;5075934;28;20024;-72
2021/12/10 06:45:32;;;;;;;8.15;1.25;;;;;;;;;;5093361;28;20039;-71
2021/12/10 06:48:00;;;;;;;7.45;0.90;;;;;;;;;;5079251;28;20472;-70
2021/12/10 06:50:28;;;;;;;8.75;1.10;;;;;;;;;;5073097;28;20047;-71
2021/12/10 06:52:55;;;;;;;11.70;0.90;;;;;;;;;;5072902;28;20400;-72
2021/12/10 06:55:21;;;;;;;5.45;0.93;;;;;;;;;;5055263;28;20021;-71
2021/12/10 06:57:48;;;;;;;4.45;1.10;;;;;;;;;;5072978;28;20028;-67
2021/12/10 07:00:16;;;;;;;2.15;0.95;;;;;;;;;;5054893;28;20032;-71
2021/12/10 07:02:44;;;;;;;6.65;1.08;;;;;;;;;;5072665;28;20029;-70
2021/12/10 07:05:10;;;;;;;5.72;0.90;;;;;;;;;;5072832;28;20025;-70
2021/12/10 07:07:38;;;;;;;10.00;1.00;;;;;;;;;;5072911;28;20025;-69
2021/12/10 07:10:05;;;;;;;8.13;1.13;;;;;;;;;;5072461;28;20464;-69
2021/12/10 07:12:31;;;;;;;7.57;1.10;;;;;;;;;;5072615;28;20032;-68
2021/12/10 07:15:01;;;;;;;6.28;0.90;;;;;;;;;;5072619;28;20028;-69
2021/12/10 07:17:27;;;;;;;31.80;1.67;;;;;;;;;;5072354;28;20090;-68
2021/12/10 07:19:53;;;;;;;24.13;1.67;;;;;;;;;;5091801;28;20021;-70
2021/12/10 07:22:19;;;;;;;25.83;1.48;;;;;;;;;;5092731;28;20107;-71
2021/12/10 07:24:45;;;;;;;25.23;1.65;;;;;;;;;;5093463;28;20416;-69
2021/12/10 07:27:12;;;;;;;24.02;2.15;;;;;;;;;;5092981;28;20028;-70
2021/12/10 07:29:39;;;;;;;20.00;1.60;;;;;;;;;;5093199;28;20028;-65
2021/12/10 07:32:05;;;;;;;22.50;2.95;;;;;;;;;;5092508;28;20428;-66
2021/12/10 07:34:31;;;;;;;19.67;1.50;;;;;;;;;;5074828;28;20388;-69
2021/12/10 07:36:57;;;;;;;22.13;2.58;;;;;;;;;;5095266;28;20486;-70
2021/12/10 07:39:23;;;;;;;11.30;1.40;;;;;;;;;;5096218;28;20020;-68
2021/12/10 07:41:49;;;;;;;14.63;1.20;;;;;;;;;;5096394;28;20024;-71
2021/12/10 07:44:15;;;;;;;20.05;1.30;;;;;;;;;;5078283;28;20020;-67
2021/12/10 07:46:41;;;;;;;16.75;1.38;;;;;;;;;;5096151;28;20103;-71
2021/12/10 07:49:14;;;;;;;10.77;0.80;;;;;;;;;;5096145;28;20024;-72
2021/12/10 07:51:42;;;;;;;12.80;1.30;;;;;;;;;;5095730;28;20387;-70
2021/12/10 07:54:09;;;;;;;4.18;1.00;;;;;;;;;;5094548;28;20020;-70
2021/12/10 07:56:35;;;;;;;9.27;1.00;;;;;;;;;;5095807;28;20042;-72
2021/12/10 07:59:01;;;;;;;13.52;1.42;;;;;;;;;;5095747;28;20061;-70
2021/12/10 08:01:28;;;;;;;11.55;1.10;;;;;;;;;;5095423;28;20024;-67
2021/12/10 08:03:54;;;;;;;11.55;1.20;;;;;;;;;;5095060;28;20019;-65
2021/12/10 08:06:21;;;;;;;6.45;0.80;;;;;;;;;;5095015;28;20426;-64
2021/12/10 08:08:48;;;;;;;9.32;1.40;;;;;;;;;;5094789;28;20024;-65
2021/12/10 08:11:14;;;;;;;9.13;1.05;;;;;;;;;;5094888;28;20024;-66
2021/12/10 08:13:40;;;;;;;7.38;0.80;;;;;;;;;;5094545;28;20399;-66
2021/12/10 08:16:07;;;;;;;4.47;1.08;;;;;;;;;;5097574;28;20528;-68
2021/12/10 08:18:33;;;;;;;4.57;0.82;;;;;;;;;;5100625;28;20016;-64
2021/12/10 08:20:59;;;;;;;2.80;0.73;;;;;;;;;;5106926;28;20031;-63
2021/12/10 08:23:25;;;;;;;3.75;1.13;;;;;;;;;;5100837;28;20048;-63
2021/12/10 08:25:52;;;;;;;4.22;0.88;;;;;;;;;;5081151;28;20129;-67
2021/12/10 08:28:22;;;;;;;6.65;0.80;;;;;;;;;;5111640;28;20016;-66
2021/12/10 08:30:48;;;;;;;7.85;1.20;;;;;;;;;;5103061;28;20047;-67
2021/12/10 08:33:14;;;;;;;3.58;0.80;;;;;;;;;;5115369;28;20026;-68
2021/12/10 08:35:45;;;;;;;7.80;0.80;;;;;;;;;;5114764;28;20039;-68
2021/12/10 08:38:12;;;;;;;3.67;0.98;;;;;;;;;;5095094;28;20032;-64
2021/12/10 08:40:41;;;;;;;5.70;0.88;;;;;;;;;;5094782;28;20095;-67
2021/12/10 08:43:07;;;;;;;5.70;1.10;;;;;;;;;;5087455;28;20394;-65
2021/12/10 08:45:34;;;;;;;2.25;0.90;;;;;;;;;;5100159;28;20020;-67
2021/12/10 08:48:00;;;;;;;2.83;0.77;;;;;;;;;;5079040;28;20039;-69
2021/12/10 08:50:27;;;;;;;5.65;0.90;;;;;;;;;;5070352;28;20024;-66
2021/12/10 08:52:57;;;;;;;6.10;0.85;;;;;;;;;;5103519;28;20027;-69
2021/12/10 08:55:23;;;;;;;2.42;1.00;;;;;;;;;;5096577;28;20019;-69
2021/12/10 08:57:49;;;;;;;8.43;0.90;;;;;;;;;;5097871;28;20040;-68
2021/12/10 09:00:15;;;;;;;3.35;0.90;;;;;;;;;;5111273;28;20008;-70
2021/12/10 09:02:41;;;;;;;3.25;0.70;;;;;;;;;;5101938;28;20039;-70
2021/12/10 09:05:08;;;;;;;1.88;0.90;;;;;;;;;;5103419;28;20107;-68
2021/12/10 09:07:35;;;;;;;3.42;0.85;;;;;;;;;;5109164;28;20027;-69
2021/12/10 09:10:01;;;;;;;1.40;0.80;;;;;;;;;;5097941;28;20024;-71
2021/12/10 09:12:28;;;;;;;3.00;0.77;;;;;;;;;;5114733;28;20360;-70
2021/12/10 09:14:55;;;;;;;6.25;1.20;;;;;;;;;;5105533;28;20016;-70
2021/12/10 09:17:24;;;;;;;1.70;0.80;;;;;;;;;;5106605;28;20397;-70
2021/12/10 09:19:50;;;;;;;4.60;0.88;;;;;;;;;;5094524;28;20028;-70
2021/12/10 09:22:17;;;;;;;1.75;0.73;;;;;;;;;;5110391;28;20028;-71
2021/12/10 09:24:43;;;;;;;2.28;0.80;;;;;;;;;;5093731;28;20095;-69
2021/12/10 09:27:11;;;;;;;3.72;0.80;;;;;;;;;;5105351;28;20036;-71
2021/12/10 09:29:39;;;;;;;6.28;0.88;;;;;;;;;;5080800;28;20020;-70
2021/12/10 09:32:07;;;;;;;3.70;0.80;;;;;;;;;;5110680;28;20031;-68
2021/12/10 09:34:33;;;;;;;2.00;0.60;;;;;;;;;;5099862;28;20028;-66
2021/12/10 09:36:59;;;;;;;1.25;0.70;;;;;;;;;;5093364;28;20383;-66
2021/12/10 09:39:26;;;;;;;0.70;0.60;;;;;;;;;;5100203;28;20020;-70
2021/12/10 09:41:53;;;;;;;4.70;0.85;;;;;;;;;;5092426;28;20391;-68
2021/12/10 09:44:19;;;;;;;5.88;0.90;;;;;;;;;;5113961;28;20012;-70
2021/12/10 09:46:47;;;;;;;2.53;0.88;;;;;;;;;;5113754;28;20019;-71
2021/12/10 09:49:14;;;;;;;1.60;0.70;;;;;;;;;;5097924;28;20088;-67
2021/12/10 09:51:43;;;;;;;1.80;0.80;;;;;;;;;;5111426;28;20028;-69
2021/12/10 09:54:11;;;;;;;2.58;0.90;;;;;;;;;;5098691;28;20086;-70
2021/12/10 09:56:47;;;;;;;2.15;0.77;;;;;;;;;;5113347;28;20409;-69
2021/12/10 09:59:13;;;;;;;2.55;0.60;;;;;;;;;;5094976;28;20024;-69
2021/12/10 10:01:45;;;;;;;2.80;0.70;;;;;;;;;;5089960;28;20064;-69
2021/12/10 10:04:15;;;;;;;1.52;0.60;;;;;;;;;;5092644;28;20062;-65
2021/12/10 10:06:43;;;;;;;2.08;0.80;;;;;;;;;;5075084;28;20548;-69
2021/12/10 10:09:10;;;;;;;2.25;0.70;;;;;;;;;;5093012;28;20100;-67
2021/12/10 10:11:36;;;;;;;1.15;0.70;;;;;;;;;;5084481;28;20028;-68
2021/12/10 10:14:03;;;;;;;3.45;0.80;;;;;;;;;;5054536;28;20119;-66
2021/12/10 10:16:32;;;;;;;2.10;0.77;;;;;;;;;;5072149;28;20044;-68
2021/12/10 10:18:59;;;;;;;1.30;0.82;;;;;;;;;;5087447;28;20031;-66
2021/12/10 10:21:28;;;;;;;2.33;0.63;;;;;;;;;;5113209;28;20477;-72
2021/12/10 10:23:55;;;;;;;2.35;0.70;;;;;;;;;;5079543;28;20024;-70
2021/12/10 10:26:31;;;;;;;1.88;0.80;;;;;;;;;;5092234;28;20424;-72
2021/12/10 10:28:58;;;;;;;3.45;0.70;;;;;;;;;;5086472;28;20035;-68
2021/12/10 10:31:24;;;;;;;1.73;0.80;;;;;;;;;;5072625;28;20107;-72
2021/12/10 10:33:52;;;;;;;1.63;0.60;;;;;;;;;;5054522;28;20064;-72
2021/12/10 10:36:19;;;;;;;2.42;0.90;;;;;;;;;;5055308;28;20553;-71
2021/12/10 10:38:51;;;;;;;1.92;0.80;;;;;;;;;;5072825;28;20035;-71
2021/12/10 10:41:19;;;;;;;1.17;0.90;;;;;;;;;;5072486;28;20451;-70
2021/12/10 10:43:45;;;;;;;1.25;0.68;;;;;;;;;;5072634;28;20354;-70
2021/12/10 10:46:11;;;;;;;1.67;0.90;;;;;;;;;;5072861;28;20020;-71
2021/12/10 10:48:38;;;;;;;1.45;0.70;;;;;;;;;;5072751;28;20035;-70
2021/12/10 10:51:06;;;;;;;1.58;0.70;;;;;;;;;;5072549;28;20503;-71
2021/12/10 10:53:35;;;;;;;0.80;0.60;;;;;;;;;;5072508;28;20036;-71
2021/12/10 10:56:04;;;;;;;1.90;0.60;;;;;;;;;;5054535;28;20036;-68
2021/12/10 10:58:35;;;;;;;2.05;0.52;;;;;;;;;;5072263;28;20040;-70
2021/12/10 11:01:13;;;;;;;1.27;0.75;;;;;;;;;;5072497;28;20032;-71
2021/12/10 11:03:44;;;;;;;2.75;0.90;;;;;;;;;;5054466;28;20464;-71
2021/12/10 11:06:15;;;;;;;1.55;0.70;;;;;;;;;;5054580;28;20028;-70
2021/12/10 11:08:50;;;;;;;2.13;0.80;;;;;;;;;;5072167;28;20056;-68
2021/12/10 11:11:19;;;;;;;0.95;0.60;;;;;;;;;;5058007;28;20028;-69
2021/12/10 11:13:46;;;;;;;1.45;0.80;;;;;;;;;;5076213;28;20070;-69
2021/12/10 11:16:15;;;;;;;0.95;0.70;;;;;;;;;;5075818;28;20035;-69
2021/12/10 11:18:48;;;;;;;1.83;0.63;;;;;;;;;;5090817;28;20035;-69
2021/12/10 11:21:14;;;;;;;0.60;0.60;;;;;;;;;;5096530;28;20090;-69
2021/12/10 11:23:42;;;;;;;1.27;0.70;;;;;;;;;;5096216;28;20023;-68
2021/12/10 11:26:08;;;;;;;2.88;0.70;;;;;;;;;;5096488;28;20024;-69
2021/12/10 11:28:36;;;;;;;1.00;0.70;;;;;;;;;;5096082;28;20020;-69
2021/12/10 11:31:04;;;;;;;2.55;1.00;;;;;;;;;;5095545;28;20031;-71
2021/12/10 11:33:35;;;;;;;2.00;0.60;;;;;;;;;;5095766;28;20020;-71
2021/12/10 11:36:12;;;;;;;2.10;0.60;;;;;;;;;;5077758;28;20039;-70
2021/12/10 11:38:39;;;;;;;2.38;0.80;;;;;;;;;;5095424;28;20119;-70
2021/12/10 11:41:07;;;;;;;1.15;0.60;;;;;;;;;;5095857;28;20479;-69
2021/12/10 11:44:06;;;;;;;3.83;0.60;;;;;;;;;;5077399;28;20024;-68
2021/12/10 11:49:21;;;;;;;2.55;0.80;;;;;;;;;;5094957;28;20028;-64
2021/12/10 11:52:02;;;;;;;1.80;0.70;;;;;;;;;;5091036;28;20085;-68
2021/12/10 11:54:36;;;;;;;1.17;0.68;;;;;;;;;;5095770;28;20024;-68
2021/12/10 11:57:05;;;;;;;0.70;0.60;;;;;;;;;;5095423;28;20099;-68
2021/12/10 11:59:40;;;;;;;1.50;0.60;;;;;;;;;;5095852;28;20024;-67
2021/12/10 12:02:10;;;;;;;0.70;0.57;;;;;;;;;;5095453;28;20020;-66
2021/12/10 12:04:44;;;;;;;1.13;0.70;;;;;;;;;;5079094;28;20040;-65
2021/12/10 12:07:16;;;;;;;1.95;0.60;;;;;;;;;;5095043;28;20020;-67
2021/12/10 12:09:44;;;;;;;1.73;0.90;;;;;;;;;;5093646;28;20486;-67
2021/12/10 12:12:12;;;;;;;1.52;0.80;;;;;;;;;;5092795;28;20039;-67
2021/12/10 12:14:43;;;;;;;0.90;0.80;;;;;;;;;;5095289;28;20115;-69
2021/12/10 12:17:27;;;;;;;1.38;0.73;;;;;;;;;;5094789;28;20438;-67
2021/12/10 12:19:53;;;;;;;2.88;0.60;;;;;;;;;;5095104;28;20536;-70
2021/12/10 12:25:09;;;;;;;1.08;0.77;;;;;;;;;;5095327;28;20123;-69
2021/12/10 12:27:36;;;;;;;1.05;0.60;;;;;;;;;;5095097;28;20035;-70
2021/12/10 12:30:06;;;;;;;1.30;0.70;;;;;;;;;;5081756;28;20044;-70
2021/12/10 12:32:37;;;;;;;1.35;0.80;;;;;;;;;;5074824;28;20024;-70
2021/12/10 12:35:20;;;;;;;1.33;0.63;;;;;;;;;;5074485;28;20048;-72
2021/12/10 12:37:46;;;;;;;1.40;0.75;;;;;;;;;;5074353;28;20155;-71
2021/12/10 12:40:13;;;;;;;2.05;0.95;;;;;;;;;;5074737;28;20060;-69
2021/12/10 12:42:44;;;;;;;1.10;0.60;;;;;;;;;;5074412;28;20025;-70
2021/12/10 12:45:12;;;;;;;1.27;0.70;;;;;;;;;;5074607;28;20095;-70
2021/12/10 12:47:40;;;;;;;1.33;0.80;;;;;;;;;;5074664;28;20024;-69
2021/12/10 12:50:06;;;;;;;2.17;0.70;;;;;;;;;;5074543;28;20107;-72
2021/12/10 12:52:36;;;;;;;0.90;0.80;;;;;;;;;;5074636;28;20032;-71
2021/12/10 12:55:21;;;;;;;1.20;0.70;;;;;;;;;;5074286;28;20523;-72
2021/12/10 12:57:50;;;;;;;1.30;0.73;;;;;;;;;;5074361;28;20033;-72
2021/12/10 13:00:26;;;;;;;1.58;0.73;;;;;;;;;;5074730;28;20120;-70
2021/12/10 13:02:54;;;;;;;2.25;0.70;;;;;;;;;;5056069;28;20082;-70
2021/12/10 13:05:20;;;;;;;0.82;0.65;;;;;;;;;;5074238;28;20017;-71
2021/12/10 13:07:46;;;;;;;1.77;0.85;;;;;;;;;;5056133;28;20025;-70
2021/12/10 13:10:19;;;;;;;1.45;0.80;;;;;;;;;;5074020;28;20021;-70
2021/12/10 13:12:55;;;;;;;1.48;0.90;;;;;;;;;;5074121;28;20100;-71
2021/12/10 13:15:25;;;;;;;3.92;1.02;;;;;;;;;;5056022;28;20287;-71
2021/12/10 13:18:00;;;;;;;1.75;1.00;;;;;;;;;;5073599;28;20055;-72
2021/12/10 13:20:30;;;;;;;0.77;0.77;;;;;;;;;;5113705;28;20535;-72
2021/12/10 13:23:01;;;;;;;1.00;0.82;;;;;;;;;;5114425;28;20070;-72
2021/12/10 13:25:28;;;;;;;1.60;0.93;;;;;;;;;;5108909;28;20534;-71
2021/12/10 13:27:57;;;;;;;2.45;0.93;;;;;;;;;;5094230;28;20456;-69
2021/12/10 13:30:25;;;;;;;0.70;0.63;;;;;;;;;;5075916;28;20471;-70
2021/12/10 13:32:52;;;;;;;1.40;0.90;;;;;;;;;;5075366;28;20379;-72
2021/12/10 13:35:19;;;;;;;1.35;0.80;;;;;;;;;;5093210;28;20035;-71
2021/12/10 13:37:46;;;;;;;1.25;0.82;;;;;;;;;;5093708;28;20043;-70
2021/12/10 13:40:15;;;;;;;1.00;0.60;;;;;;;;;;5093570;28;20020;-67
2021/12/10 13:42:41;;;;;;;1.60;0.80;;;;;;;;;;5093511;28;20052;-73
2021/12/10 13:45:08;;;;;;;2.15;0.70;;;;;;;;;;5093724;28;20498;-73
2021/12/10 13:47:37;;;;;;;1.67;0.80;;;;;;;;;;5093517;28;20027;-73
2021/12/10 13:50:11;;;;;;;1.73;1.08;;;;;;;;;;5093586;28;20467;-70
2021/12/10 13:52:43;;;;;;;1.40;0.73;;;;;;;;;;5093620;28;20032;-71
2021/12/10 13:55:29;;;;;;;1.88;0.90;;;;;;;;;;5093453;28;20077;-70
2021/12/10 13:58:13;;;;;;;1.75;0.90;;;;;;;;;;5093157;28;20085;-71
2021/12/10 14:00:43;;;;;;;1.20;0.90;;;;;;;;;;5093229;28;20153;-72
2021/12/10 14:03:09;;;;;;;1.25;0.70;;;;;;;;;;5093201;28;20081;-73
2021/12/10 14:05:38;;;;;;;1.13;0.63;;;;;;;;;;5093553;28;20028;-69
2021/12/10 14:08:09;;;;;;;1.23;0.77;;;;;;;;;;5075448;28;20024;-72
2021/12/10 14:10:41;;;;;;;1.52;0.80;;;;;;;;;;5093685;28;20023;-69
2021/12/10 14:13:08;;;;;;;0.60;0.60;;;;;;;;;;5094024;28;20032;-67
2021/12/10 14:15:59;;;;;;;1.55;1.08;;;;;;;;;;5093281;28;20081;-69
2021/12/10 14:18:26;;;;;;;1.88;0.82;;;;;;;;;;5093042;28;20094;-71
2021/12/10 14:21:15;;;;;;;1.60;0.95;;;;;;;;;;5093698;28;20024;-69
2021/12/10 14:23:44;;;;;;;2.00;0.98;;;;;;;;;;5085313;28;20115;-70
2021/12/10 14:26:16;;;;;;;1.40;0.77;;;;;;;;;;5093445;28;20032;-68
2021/12/10 14:28:44;;;;;;;1.55;0.70;;;;;;;;;;5093415;28;20425;-70
2021/12/10 14:31:12;;;;;;;0.98;0.60;;;;;;;;;;5093240;28;20035;-69
2021/12/10 14:33:40;;;;;;;2.85;0.80;;;;;;;;;;5093070;28;20032;-69
2021/12/10 14:36:08;;;;;;;2.15;0.80;;;;;;;;;;5092847;28;20099;-71
2021/12/10 14:38:46;;;;;;;1.20;0.82;;;;;;;;;;5093010;28;20471;-67
2021/12/10 14:41:24;;;;;;;2.00;0.90;;;;;;;;;;5092607;28;20382;-67
2021/12/10 14:44:13;;;;;;;2.67;0.90;;;;;;;;;;5074722;28;20031;-67
2021/12/10 14:46:40;;;;;;;1.70;0.80;;;;;;;;;;5088535;28;20093;-72
2021/12/10 14:49:18;;;;;;;1.40;0.70;;;;;;;;;;5097043;28;20024;-72
2021/12/10 14:51:44;;;;;;;1.17;0.63;;;;;;;;;;5096850;28;20454;-75
2021/12/10 14:54:16;;;;;;;1.33;0.80;;;;;;;;;;5097294;28;20032;-74
2021/12/10 14:56:48;;;;;;;1.27;0.80;;;;;;;;;;5097147;28;20254;-74
2021/12/10 14:59:25;;;;;;;2.25;0.80;;;;;;;;;;5096892;28;20032;-71
2021/12/10 15:02:11;;;;;;;1.10;0.70;;;;;;;;;;5097110;28;20024;-72
2021/12/10 15:04:40;;;;;;;3.17;0.65;;;;;;;;;;5096505;28;20035;-72
2021/12/10 15:07:12;;;;;;;0.98;0.73;;;;;;;;;;5096667;28;20052;-72
2021/12/10 15:09:57;;;;;;;0.82;0.68;;;;;;;;;;5096906;28;20016;-71